sensor_id;sensor_type;location;lat;lon;timestamp;P1;durP1;ratioP1;P2;durP2;ratioP2
58083;SDS011;43882;51.550;11.858;2023-04-07T00:01:32;28.23;;;13.93;;
58083;SDS011;43882;51.550;11.858;2023-04-07T00:03:58;25.77;;;13.82;;
58083;SDS011;43882;51.550;11.858;2023-04-07T00:06:24;26.25;;;13.52;;
58083;SDS011;43882;51.550;11.858;2023-04-07T00:08:51;25.75;;;12.40;;
58083;SDS011;43882;51.550;11.858;2023-04-07T00:11:17;27.23;;;13.73;;
58083;SDS011;43882;51.550;11.858;2023-04-07T00:13:43;25.85;;;13.27;;
58083;SDS011;43882;51.550;11.858;2023-04-07T00:16:09;26.15;;;13.48;;
58083;SDS011;43882;51.550;11.858;2023-04-07T00:18:35;25.88;;;13.60;;
58083;SDS011;43882;51.550;11.858;2023-04-07T00:21:01;23.98;;;12.88;;
58083;SDS011;43882;51.550;11.858;2023-04-07T00:23:27;25.95;;;13.45;;
58083;SDS011;43882;51.550;11.858;2023-04-07T00:25:53;25.38;;;13.50;;
58083;SDS011;43882;51.550;11.858;2023-04-07T00:28:19;26.25;;;13.80;;
58083;SDS011;43882;51.550;11.858;2023-04-07T00:30:45;24.02;;;12.23;;
58083;SDS011;43882;51.550;11.858;2023-04-07T00:33:11;27.98;;;13.88;;
58083;SDS011;43882;51.550;11.858;2023-04-07T00:35:36;27.77;;;13.48;;
58083;SDS011;43882;51.550;11.858;2023-04-07T00:38:02;26.30;;;13.43;;
58083;SDS011;43882;51.550;11.858;2023-04-07T00:40:28;26.35;;;13.63;;
58083;SDS011;43882;51.550;11.858;2023-04-07T00:42:54;26.58;;;13.63;;
58083;SDS011;43882;51.550;11.858;2023-04-07T00:45:20;28.83;;;14.55;;
58083;SDS011;43882;51.550;11.858;2023-04-07T00:47:46;30.73;;;14.27;;
58083;SDS011;43882;51.550;11.858;2023-04-07T00:50:12;25.58;;;13.52;;
58083;SDS011;43882;51.550;11.858;2023-04-07T00:52:38;32.50;;;14.80;;
58083;SDS011;43882;51.550;11.858;2023-04-07T00:55:04;29.90;;;14.00;;
58083;SDS011;43882;51.550;11.858;2023-04-07T00:57:30;28.77;;;14.27;;
58083;SDS011;43882;51.550;11.858;2023-04-07T00:59:56;27.45;;;14.23;;
58083;SDS011;43882;51.550;11.858;2023-04-07T01:07:39;30.15;;;14.60;;
58083;SDS011;43882;51.550;11.858;2023-04-07T01:10:09;28.60;;;13.65;;
58083;SDS011;43882;51.550;11.858;2023-04-07T01:12:39;25.60;;;13.05;;
58083;SDS011;43882;51.550;11.858;2023-04-07T01:15:09;27.85;;;14.07;;
58083;SDS011;43882;51.550;11.858;2023-04-07T01:17:36;27.83;;;14.50;;
58083;SDS011;43882;51.550;11.858;2023-04-07T01:20:04;27.65;;;14.50;;
58083;SDS011;43882;51.550;11.858;2023-04-07T01:27:47;26.23;;;13.55;;
58083;SDS011;43882;51.550;11.858;2023-04-07T01:30:14;26.33;;;13.05;;
58083;SDS011;43882;51.550;11.858;2023-04-07T01:32:40;28.15;;;13.65;;
58083;SDS011;43882;51.550;11.858;2023-04-07T01:35:09;28.63;;;14.43;;
58083;SDS011;43882;51.550;11.858;2023-04-07T01:37:35;31.42;;;14.68;;
58083;SDS011;43882;51.550;11.858;2023-04-07T01:40:02;26.75;;;14.13;;
58083;SDS011;43882;51.550;11.858;2023-04-07T01:42:29;27.02;;;13.07;;
58083;SDS011;43882;51.550;11.858;2023-04-07T01:44:56;27.60;;;13.80;;
58083;SDS011;43882;51.550;11.858;2023-04-07T01:47:22;30.02;;;13.45;;
58083;SDS011;43882;51.550;11.858;2023-04-07T01:49:51;28.83;;;13.35;;
58083;SDS011;43882;51.550;11.858;2023-04-07T01:52:18;27.73;;;13.65;;
58083;SDS011;43882;51.550;11.858;2023-04-07T01:54:45;27.90;;;14.15;;
58083;SDS011;43882;51.550;11.858;2023-04-07T01:57:11;29.50;;;14.07;;
58083;SDS011;43882;51.550;11.858;2023-04-07T01:59:37;26.55;;;13.77;;
58083;SDS011;43882;51.550;11.858;2023-04-07T02:02:03;26.02;;;13.63;;
58083;SDS011;43882;51.550;11.858;2023-04-07T02:04:51;27.05;;;13.40;;
58083;SDS011;43882;51.550;11.858;2023-04-07T02:07:19;29.63;;;13.73;;
58083;SDS011;43882;51.550;11.858;2023-04-07T02:09:47;27.70;;;13.73;;
58083;SDS011;43882;51.550;11.858;2023-04-07T02:12:14;27.20;;;13.25;;
58083;SDS011;43882;51.550;11.858;2023-04-07T02:14:40;26.98;;;14.18;;
58083;SDS011;43882;51.550;11.858;2023-04-07T02:17:06;26.42;;;13.18;;
58083;SDS011;43882;51.550;11.858;2023-04-07T02:19:33;27.08;;;13.32;;
58083;SDS011;43882;51.550;11.858;2023-04-07T02:22:00;25.33;;;12.70;;
58083;SDS011;43882;51.550;11.858;2023-04-07T02:24:27;27.20;;;13.05;;
58083;SDS011;43882;51.550;11.858;2023-04-07T02:26:53;27.52;;;12.73;;
58083;SDS011;43882;51.550;11.858;2023-04-07T02:29:20;26.30;;;12.88;;
58083;SDS011;43882;51.550;11.858;2023-04-07T02:31:46;24.50;;;12.55;;
58083;SDS011;43882;51.550;11.858;2023-04-07T02:34:12;25.63;;;12.10;;
58083;SDS011;43882;51.550;11.858;2023-04-07T02:36:37;28.63;;;12.65;;
58083;SDS011;43882;51.550;11.858;2023-04-07T02:39:03;25.42;;;13.25;;
58083;SDS011;43882;51.550;11.858;2023-04-07T02:41:29;24.60;;;12.07;;
58083;SDS011;43882;51.550;11.858;2023-04-07T02:43:55;27.00;;;11.63;;
58083;SDS011;43882;51.550;11.858;2023-04-07T02:46:21;27.05;;;12.60;;
58083;SDS011;43882;51.550;11.858;2023-04-07T02:48:47;25.67;;;13.05;;
58083;SDS011;43882;51.550;11.858;2023-04-07T02:51:13;25.90;;;12.75;;
58083;SDS011;43882;51.550;11.858;2023-04-07T02:53:39;25.70;;;12.68;;
58083;SDS011;43882;51.550;11.858;2023-04-07T02:56:05;25.20;;;12.23;;
58083;SDS011;43882;51.550;11.858;2023-04-07T02:58:31;26.50;;;13.15;;
58083;SDS011;43882;51.550;11.858;2023-04-07T03:00:57;24.55;;;12.60;;
58083;SDS011;43882;51.550;11.858;2023-04-07T03:03:23;25.02;;;12.20;;
58083;SDS011;43882;51.550;11.858;2023-04-07T03:05:49;22.98;;;11.38;;
58083;SDS011;43882;51.550;11.858;2023-04-07T03:08:15;23.90;;;11.88;;
58083;SDS011;43882;51.550;11.858;2023-04-07T03:10:41;24.48;;;12.02;;
58083;SDS011;43882;51.550;11.858;2023-04-07T03:13:07;24.75;;;11.88;;
58083;SDS011;43882;51.550;11.858;2023-04-07T03:15:33;24.50;;;11.68;;
58083;SDS011;43882;51.550;11.858;2023-04-07T03:17:59;26.77;;;11.88;;
58083;SDS011;43882;51.550;11.858;2023-04-07T03:20:25;27.58;;;12.32;;
58083;SDS011;43882;51.550;11.858;2023-04-07T03:22:51;25.92;;;12.82;;
58083;SDS011;43882;51.550;11.858;2023-04-07T03:25:17;25.58;;;12.75;;
58083;SDS011;43882;51.550;11.858;2023-04-07T03:27:43;26.33;;;12.77;;
58083;SDS011;43882;51.550;11.858;2023-04-07T03:30:09;24.42;;;12.35;;
58083;SDS011;43882;51.550;11.858;2023-04-07T03:32:35;26.52;;;12.38;;
58083;SDS011;43882;51.550;11.858;2023-04-07T03:35:01;24.45;;;11.75;;
58083;SDS011;43882;51.550;11.858;2023-04-07T03:37:27;24.70;;;12.32;;
58083;SDS011;43882;51.550;11.858;2023-04-07T03:39:53;24.90;;;12.77;;
58083;SDS011;43882;51.550;11.858;2023-04-07T03:42:19;25.92;;;12.95;;
58083;SDS011;43882;51.550;11.858;2023-04-07T03:44:45;26.15;;;12.70;;
58083;SDS011;43882;51.550;11.858;2023-04-07T03:47:11;25.30;;;12.70;;
58083;SDS011;43882;51.550;11.858;2023-04-07T03:49:37;29.48;;;13.52;;
58083;SDS011;43882;51.550;11.858;2023-04-07T03:52:03;27.83;;;13.98;;
58083;SDS011;43882;51.550;11.858;2023-04-07T03:54:29;26.83;;;13.32;;
58083;SDS011;43882;51.550;11.858;2023-04-07T03:56:55;29.85;;;13.52;;
58083;SDS011;43882;51.550;11.858;2023-04-07T03:59:21;28.35;;;13.48;;
58083;SDS011;43882;51.550;11.858;2023-04-07T04:01:47;27.80;;;13.60;;
58083;SDS011;43882;51.550;11.858;2023-04-07T04:04:13;27.70;;;13.68;;
58083;SDS011;43882;51.550;11.858;2023-04-07T04:06:39;26.08;;;13.02;;
58083;SDS011;43882;51.550;11.858;2023-04-07T04:09:05;25.42;;;12.90;;
58083;SDS011;43882;51.550;11.858;2023-04-07T04:11:31;27.75;;;13.65;;
58083;SDS011;43882;51.550;11.858;2023-04-07T04:13:57;27.52;;;12.98;;
58083;SDS011;43882;51.550;11.858;2023-04-07T04:16:23;26.65;;;12.45;;
58083;SDS011;43882;51.550;11.858;2023-04-07T04:18:49;28.27;;;12.40;;
58083;SDS011;43882;51.550;11.858;2023-04-07T04:21:15;26.17;;;12.30;;
58083;SDS011;43882;51.550;11.858;2023-04-07T04:23:41;23.40;;;11.93;;
58083;SDS011;43882;51.550;11.858;2023-04-07T04:26:07;24.75;;;11.95;;
58083;SDS011;43882;51.550;11.858;2023-04-07T04:28:33;24.98;;;12.45;;
58083;SDS011;43882;51.550;11.858;2023-04-07T04:30:59;22.30;;;10.63;;
58083;SDS011;43882;51.550;11.858;2023-04-07T04:33:25;24.35;;;11.55;;
58083;SDS011;43882;51.550;11.858;2023-04-07T04:35:51;23.60;;;11.05;;
58083;SDS011;43882;51.550;11.858;2023-04-07T04:38:17;24.00;;;11.18;;
58083;SDS011;43882;51.550;11.858;2023-04-07T04:40:43;23.42;;;11.95;;
58083;SDS011;43882;51.550;11.858;2023-04-07T04:43:09;34.22;;;15.75;;
58083;SDS011;43882;51.550;11.858;2023-04-07T04:45:35;28.48;;;11.98;;
58083;SDS011;43882;51.550;11.858;2023-04-07T04:48:01;24.85;;;12.65;;
58083;SDS011;43882;51.550;11.858;2023-04-07T04:50:27;24.20;;;11.63;;
58083;SDS011;43882;51.550;11.858;2023-04-07T04:52:53;26.10;;;11.95;;
58083;SDS011;43882;51.550;11.858;2023-04-07T04:55:19;23.08;;;11.48;;
58083;SDS011;43882;51.550;11.858;2023-04-07T04:57:45;25.15;;;11.98;;
58083;SDS011;43882;51.550;11.858;2023-04-07T05:00:11;24.75;;;11.98;;
58083;SDS011;43882;51.550;11.858;2023-04-07T05:02:37;25.75;;;11.70;;
58083;SDS011;43882;51.550;11.858;2023-04-07T05:05:03;23.92;;;11.57;;
58083;SDS011;43882;51.550;11.858;2023-04-07T05:07:29;25.60;;;12.48;;
58083;SDS011;43882;51.550;11.858;2023-04-07T05:09:55;28.30;;;11.95;;
58083;SDS011;43882;51.550;11.858;2023-04-07T05:12:21;26.90;;;12.20;;
58083;SDS011;43882;51.550;11.858;2023-04-07T05:14:47;26.42;;;12.43;;
58083;SDS011;43882;51.550;11.858;2023-04-07T05:17:13;25.73;;;12.57;;
58083;SDS011;43882;51.550;11.858;2023-04-07T05:19:39;26.33;;;12.57;;
58083;SDS011;43882;51.550;11.858;2023-04-07T05:22:05;25.80;;;12.00;;
58083;SDS011;43882;51.550;11.858;2023-04-07T05:24:31;24.42;;;11.63;;
58083;SDS011;43882;51.550;11.858;2023-04-07T05:26:57;22.00;;;11.40;;
58083;SDS011;43882;51.550;11.858;2023-04-07T05:29:23;26.42;;;12.02;;
58083;SDS011;43882;51.550;11.858;2023-04-07T05:31:49;25.52;;;11.38;;
58083;SDS011;43882;51.550;11.858;2023-04-07T05:34:15;28.00;;;14.10;;
58083;SDS011;43882;51.550;11.858;2023-04-07T05:36:41;29.00;;;15.15;;
58083;SDS011;43882;51.550;11.858;2023-04-07T05:39:07;35.35;;;19.33;;
58083;SDS011;43882;51.550;11.858;2023-04-07T05:41:33;29.02;;;14.45;;
58083;SDS011;43882;51.550;11.858;2023-04-07T05:43:59;25.92;;;13.48;;
58083;SDS011;43882;51.550;11.858;2023-04-07T05:46:25;33.55;;;16.60;;
58083;SDS011;43882;51.550;11.858;2023-04-07T05:48:51;31.40;;;15.80;;
58083;SDS011;43882;51.550;11.858;2023-04-07T05:51:17;31.95;;;15.38;;
58083;SDS011;43882;51.550;11.858;2023-04-07T05:53:43;27.73;;;15.23;;
58083;SDS011;43882;51.550;11.858;2023-04-07T05:56:09;30.45;;;14.80;;
58083;SDS011;43882;51.550;11.858;2023-04-07T05:58:35;26.80;;;12.35;;
58083;SDS011;43882;51.550;11.858;2023-04-07T06:01:01;28.70;;;13.65;;
58083;SDS011;43882;51.550;11.858;2023-04-07T06:03:26;27.88;;;13.05;;
58083;SDS011;43882;51.550;11.858;2023-04-07T06:05:52;25.88;;;12.55;;
58083;SDS011;43882;51.550;11.858;2023-04-07T06:08:18;27.45;;;13.63;;
58083;SDS011;43882;51.550;11.858;2023-04-07T06:10:44;26.65;;;13.88;;
58083;SDS011;43882;51.550;11.858;2023-04-07T06:13:10;25.42;;;12.90;;
58083;SDS011;43882;51.550;11.858;2023-04-07T06:15:36;25.92;;;12.20;;
58083;SDS011;43882;51.550;11.858;2023-04-07T06:18:02;27.17;;;12.38;;
58083;SDS011;43882;51.550;11.858;2023-04-07T06:20:28;25.88;;;13.82;;
58083;SDS011;43882;51.550;11.858;2023-04-07T06:22:55;25.40;;;13.27;;
58083;SDS011;43882;51.550;11.858;2023-04-07T06:25:21;27.30;;;13.27;;
58083;SDS011;43882;51.550;11.858;2023-04-07T06:27:47;27.42;;;12.93;;
58083;SDS011;43882;51.550;11.858;2023-04-07T06:30:13;25.27;;;13.13;;
58083;SDS011;43882;51.550;11.858;2023-04-07T06:32:39;25.90;;;12.85;;
58083;SDS011;43882;51.550;11.858;2023-04-07T06:35:05;24.25;;;12.73;;
58083;SDS011;43882;51.550;11.858;2023-04-07T06:37:31;25.00;;;11.85;;
58083;SDS011;43882;51.550;11.858;2023-04-07T06:39:57;27.15;;;12.82;;
58083;SDS011;43882;51.550;11.858;2023-04-07T06:42:23;23.15;;;12.13;;
58083;SDS011;43882;51.550;11.858;2023-04-07T06:44:49;25.20;;;12.35;;
58083;SDS011;43882;51.550;11.858;2023-04-07T06:47:15;25.77;;;12.43;;
58083;SDS011;43882;51.550;11.858;2023-04-07T06:49:41;23.98;;;12.10;;
58083;SDS011;43882;51.550;11.858;2023-04-07T06:52:07;24.63;;;12.35;;
58083;SDS011;43882;51.550;11.858;2023-04-07T06:54:33;23.67;;;12.35;;
58083;SDS011;43882;51.550;11.858;2023-04-07T06:56:59;25.60;;;12.30;;
58083;SDS011;43882;51.550;11.858;2023-04-07T06:59:25;24.00;;;11.95;;
58083;SDS011;43882;51.550;11.858;2023-04-07T07:01:51;24.02;;;11.70;;
58083;SDS011;43882;51.550;11.858;2023-04-07T07:04:17;23.65;;;11.90;;
58083;SDS011;43882;51.550;11.858;2023-04-07T07:06:43;24.02;;;11.75;;
58083;SDS011;43882;51.550;11.858;2023-04-07T07:09:09;29.52;;;13.88;;
58083;SDS011;43882;51.550;11.858;2023-04-07T07:11:35;25.75;;;11.60;;
58083;SDS011;43882;51.550;11.858;2023-04-07T07:14:01;22.77;;;11.32;;
58083;SDS011;43882;51.550;11.858;2023-04-07T07:16:27;23.83;;;11.02;;
58083;SDS011;43882;51.550;11.858;2023-04-07T07:18:53;22.95;;;11.25;;
58083;SDS011;43882;51.550;11.858;2023-04-07T07:21:19;30.70;;;13.82;;
58083;SDS011;43882;51.550;11.858;2023-04-07T07:23:45;23.38;;;10.88;;
58083;SDS011;43882;51.550;11.858;2023-04-07T07:26:11;22.13;;;10.43;;
58083;SDS011;43882;51.550;11.858;2023-04-07T07:28:37;21.45;;;10.25;;
58083;SDS011;43882;51.550;11.858;2023-04-07T07:31:09;22.10;;;10.23;;
58083;SDS011;43882;51.550;11.858;2023-04-07T07:33:37;20.80;;;9.73;;
58083;SDS011;43882;51.550;11.858;2023-04-07T07:36:04;33.00;;;14.52;;
58083;SDS011;43882;51.550;11.858;2023-04-07T07:38:30;26.90;;;11.38;;
58083;SDS011;43882;51.550;11.858;2023-04-07T07:40:56;20.77;;;9.75;;
58083;SDS011;43882;51.550;11.858;2023-04-07T07:43:22;24.00;;;10.93;;
58083;SDS011;43882;51.550;11.858;2023-04-07T07:45:48;23.08;;;10.43;;
58083;SDS011;43882;51.550;11.858;2023-04-07T07:48:14;22.42;;;11.02;;
58083;SDS011;43882;51.550;11.858;2023-04-07T07:50:40;20.23;;;10.23;;
58083;SDS011;43882;51.550;11.858;2023-04-07T07:53:07;20.17;;;10.38;;
58083;SDS011;43882;51.550;11.858;2023-04-07T07:55:33;20.52;;;9.57;;
58083;SDS011;43882;51.550;11.858;2023-04-07T07:57:59;21.85;;;10.80;;
58083;SDS011;43882;51.550;11.858;2023-04-07T08:00:25;21.95;;;10.70;;
58083;SDS011;43882;51.550;11.858;2023-04-07T08:02:51;20.42;;;9.75;;
58083;SDS011;43882;51.550;11.858;2023-04-07T08:05:17;20.15;;;10.15;;
58083;SDS011;43882;51.550;11.858;2023-04-07T08:07:43;20.55;;;10.15;;
58083;SDS011;43882;51.550;11.858;2023-04-07T08:10:10;22.35;;;10.57;;
58083;SDS011;43882;51.550;11.858;2023-04-07T08:12:36;21.63;;;10.75;;
58083;SDS011;43882;51.550;11.858;2023-04-07T08:15:03;21.90;;;10.30;;
58083;SDS011;43882;51.550;11.858;2023-04-07T08:17:30;21.02;;;9.90;;
58083;SDS011;43882;51.550;11.858;2023-04-07T08:19:56;21.38;;;10.57;;
58083;SDS011;43882;51.550;11.858;2023-04-07T08:22:21;22.20;;;10.48;;
58083;SDS011;43882;51.550;11.858;2023-04-07T08:24:47;19.98;;;9.82;;
58083;SDS011;43882;51.550;11.858;2023-04-07T08:27:13;22.55;;;10.32;;
58083;SDS011;43882;51.550;11.858;2023-04-07T08:29:39;23.02;;;10.60;;
58083;SDS011;43882;51.550;11.858;2023-04-07T08:32:05;20.67;;;9.85;;
58083;SDS011;43882;51.550;11.858;2023-04-07T08:34:31;20.83;;;9.90;;
58083;SDS011;43882;51.550;11.858;2023-04-07T08:36:57;21.02;;;9.70;;
58083;SDS011;43882;51.550;11.858;2023-04-07T08:39:23;21.55;;;9.75;;
58083;SDS011;43882;51.550;11.858;2023-04-07T08:41:49;21.98;;;10.13;;
58083;SDS011;43882;51.550;11.858;2023-04-07T08:44:16;20.60;;;9.52;;
58083;SDS011;43882;51.550;11.858;2023-04-07T08:46:42;19.92;;;10.18;;
58083;SDS011;43882;51.550;11.858;2023-04-07T08:49:09;22.60;;;9.90;;
58083;SDS011;43882;51.550;11.858;2023-04-07T08:51:36;21.83;;;9.02;;
58083;SDS011;43882;51.550;11.858;2023-04-07T08:54:04;19.73;;;8.77;;
58083;SDS011;43882;51.550;11.858;2023-04-07T08:56:32;20.33;;;9.65;;
58083;SDS011;43882;51.550;11.858;2023-04-07T08:58:59;19.83;;;8.57;;
58083;SDS011;43882;51.550;11.858;2023-04-07T09:01:25;24.73;;;10.57;;
58083;SDS011;43882;51.550;11.858;2023-04-07T09:03:51;22.83;;;9.02;;
58083;SDS011;43882;51.550;11.858;2023-04-07T09:06:17;20.73;;;8.88;;
58083;SDS011;43882;51.550;11.858;2023-04-07T09:08:43;20.30;;;8.63;;
58083;SDS011;43882;51.550;11.858;2023-04-07T09:11:09;21.13;;;8.52;;
58083;SDS011;43882;51.550;11.858;2023-04-07T09:13:35;20.63;;;8.93;;
58083;SDS011;43882;51.550;11.858;2023-04-07T09:16:01;20.67;;;8.48;;
58083;SDS011;43882;51.550;11.858;2023-04-07T09:18:27;19.15;;;8.38;;
58083;SDS011;43882;51.550;11.858;2023-04-07T09:21:03;20.23;;;8.18;;
58083;SDS011;43882;51.550;11.858;2023-04-07T09:23:33;19.20;;;8.50;;
58083;SDS011;43882;51.550;11.858;2023-04-07T09:26:01;21.58;;;9.52;;
58083;SDS011;43882;51.550;11.858;2023-04-07T09:28:46;20.10;;;8.60;;
58083;SDS011;43882;51.550;11.858;2023-04-07T09:31:12;19.98;;;9.05;;
58083;SDS011;43882;51.550;11.858;2023-04-07T09:33:38;22.17;;;8.93;;
58083;SDS011;43882;51.550;11.858;2023-04-07T09:36:05;20.63;;;9.35;;
58083;SDS011;43882;51.550;11.858;2023-04-07T09:38:41;19.90;;;8.50;;
58083;SDS011;43882;51.550;11.858;2023-04-07T09:41:14;21.05;;;8.63;;
58083;SDS011;43882;51.550;11.858;2023-04-07T09:43:41;19.88;;;8.70;;
58083;SDS011;43882;51.550;11.858;2023-04-07T09:46:09;20.45;;;8.73;;
58083;SDS011;43882;51.550;11.858;2023-04-07T09:48:35;19.90;;;8.55;;
58083;SDS011;43882;51.550;11.858;2023-04-07T09:51:09;18.67;;;7.90;;
58083;SDS011;43882;51.550;11.858;2023-04-07T09:53:54;22.50;;;9.27;;
58083;SDS011;43882;51.550;11.858;2023-04-07T09:56:20;19.13;;;8.00;;
58083;SDS011;43882;51.550;11.858;2023-04-07T09:58:47;20.98;;;8.30;;
58083;SDS011;43882;51.550;11.858;2023-04-07T10:01:15;18.98;;;8.77;;
58083;SDS011;43882;51.550;11.858;2023-04-07T10:03:41;19.45;;;8.35;;
58083;SDS011;43882;51.550;11.858;2023-04-07T10:06:08;20.48;;;9.00;;
58083;SDS011;43882;51.550;11.858;2023-04-07T10:08:35;20.15;;;8.57;;
58083;SDS011;43882;51.550;11.858;2023-04-07T10:11:01;21.17;;;9.38;;
58083;SDS011;43882;51.550;11.858;2023-04-07T10:13:28;21.65;;;8.52;;
58083;SDS011;43882;51.550;11.858;2023-04-07T10:15:55;20.98;;;8.80;;
58083;SDS011;43882;51.550;11.858;2023-04-07T10:18:21;20.13;;;8.60;;
58083;SDS011;43882;51.550;11.858;2023-04-07T10:20:48;19.83;;;8.38;;
58083;SDS011;43882;51.550;11.858;2023-04-07T10:26:00;19.45;;;8.50;;
58083;SDS011;43882;51.550;11.858;2023-04-07T10:28:27;20.70;;;8.52;;
58083;SDS011;43882;51.550;11.858;2023-04-07T10:30:54;20.25;;;9.30;;
58083;SDS011;43882;51.550;11.858;2023-04-07T10:36:22;21.65;;;9.75;;
58083;SDS011;43882;51.550;11.858;2023-04-07T10:39:17;20.00;;;8.73;;
58083;SDS011;43882;51.550;11.858;2023-04-07T10:41:43;21.25;;;9.32;;
58083;SDS011;43882;51.550;11.858;2023-04-07T10:44:09;21.85;;;9.48;;
58083;SDS011;43882;51.550;11.858;2023-04-07T10:49:21;19.77;;;9.15;;
58083;SDS011;43882;51.550;11.858;2023-04-07T10:54:31;20.40;;;8.60;;
58083;SDS011;43882;51.550;11.858;2023-04-07T10:59:32;19.60;;;8.75;;
58083;SDS011;43882;51.550;11.858;2023-04-07T11:04:40;22.48;;;9.77;;
58083;SDS011;43882;51.550;11.858;2023-04-07T11:07:07;20.05;;;8.70;;
58083;SDS011;43882;51.550;11.858;2023-04-07T11:09:33;20.33;;;9.70;;
58083;SDS011;43882;51.550;11.858;2023-04-07T11:11:59;20.80;;;9.40;;
58083;SDS011;43882;51.550;11.858;2023-04-07T11:14:25;21.67;;;9.65;;
58083;SDS011;43882;51.550;11.858;2023-04-07T11:16:52;20.80;;;9.02;;
58083;SDS011;43882;51.550;11.858;2023-04-07T11:19:18;19.73;;;8.95;;
58083;SDS011;43882;51.550;11.858;2023-04-07T11:21:44;23.25;;;10.20;;
58083;SDS011;43882;51.550;11.858;2023-04-07T11:24:30;22.92;;;9.52;;
58083;SDS011;43882;51.550;11.858;2023-04-07T11:26:56;21.48;;;9.30;;
58083;SDS011;43882;51.550;11.858;2023-04-07T11:29:32;20.90;;;9.02;;
58083;SDS011;43882;51.550;11.858;2023-04-07T11:31:58;18.95;;;8.88;;
58083;SDS011;43882;51.550;11.858;2023-04-07T11:34:31;19.15;;;8.05;;
58083;SDS011;43882;51.550;11.858;2023-04-07T11:36:58;21.38;;;9.77;;
58083;SDS011;43882;51.550;11.858;2023-04-07T11:39:42;20.42;;;8.57;;
58083;SDS011;43882;51.550;11.858;2023-04-07T11:42:11;21.02;;;9.07;;
58083;SDS011;43882;51.550;11.858;2023-04-07T11:44:44;21.65;;;9.05;;
58083;SDS011;43882;51.550;11.858;2023-04-07T11:47:10;19.58;;;8.88;;
58083;SDS011;43882;51.550;11.858;2023-04-07T11:49:43;19.50;;;9.15;;
58083;SDS011;43882;51.550;11.858;2023-04-07T11:52:09;20.58;;;8.77;;
58083;SDS011;43882;51.550;11.858;2023-04-07T11:54:42;20.98;;;9.02;;
58083;SDS011;43882;51.550;11.858;2023-04-07T11:57:08;20.63;;;9.10;;
58083;SDS011;43882;51.550;11.858;2023-04-07T11:59:37;19.73;;;8.73;;
58083;SDS011;43882;51.550;11.858;2023-04-07T12:02:03;20.58;;;9.00;;
58083;SDS011;43882;51.550;11.858;2023-04-07T12:04:29;20.63;;;9.55;;
58083;SDS011;43882;51.550;11.858;2023-04-07T12:07:03;20.88;;;9.30;;
58083;SDS011;43882;51.550;11.858;2023-04-07T12:09:32;20.30;;;9.50;;
58083;SDS011;43882;51.550;11.858;2023-04-07T12:12:05;20.17;;;9.95;;
58083;SDS011;43882;51.550;11.858;2023-04-07T12:14:31;21.05;;;9.60;;
58083;SDS011;43882;51.550;11.858;2023-04-07T12:16:57;21.88;;;8.93;;
58083;SDS011;43882;51.550;11.858;2023-04-07T12:19:26;20.05;;;9.30;;
58083;SDS011;43882;51.550;11.858;2023-04-07T12:21:52;20.35;;;9.35;;
58083;SDS011;43882;51.550;11.858;2023-04-07T12:24:18;20.05;;;9.00;;
58083;SDS011;43882;51.550;11.858;2023-04-07T12:26:45;18.73;;;8.55;;
58083;SDS011;43882;51.550;11.858;2023-04-07T12:29:12;21.20;;;9.73;;
58083;SDS011;43882;51.550;11.858;2023-04-07T12:31:38;20.48;;;8.70;;
58083;SDS011;43882;51.550;11.858;2023-04-07T12:34:04;19.55;;;7.88;;
58083;SDS011;43882;51.550;11.858;2023-04-07T12:36:30;19.70;;;8.15;;
58083;SDS011;43882;51.550;11.858;2023-04-07T12:38:57;19.80;;;8.05;;
58083;SDS011;43882;51.550;11.858;2023-04-07T12:41:23;18.65;;;7.95;;
58083;SDS011;43882;51.550;11.858;2023-04-07T12:43:50;19.35;;;7.53;;
58083;SDS011;43882;51.550;11.858;2023-04-07T12:46:16;18.85;;;7.65;;
58083;SDS011;43882;51.550;11.858;2023-04-07T12:48:42;18.67;;;7.80;;
58083;SDS011;43882;51.550;11.858;2023-04-07T12:51:08;18.45;;;7.65;;
58083;SDS011;43882;51.550;11.858;2023-04-07T12:53:34;18.50;;;7.50;;
58083;SDS011;43882;51.550;11.858;2023-04-07T12:56:00;18.38;;;7.30;;
58083;SDS011;43882;51.550;11.858;2023-04-07T12:58:26;18.20;;;7.70;;
58083;SDS011;43882;51.550;11.858;2023-04-07T13:00:52;17.85;;;6.93;;
58083;SDS011;43882;51.550;11.858;2023-04-07T13:03:18;17.17;;;7.22;;
58083;SDS011;43882;51.550;11.858;2023-04-07T13:05:44;17.40;;;7.07;;
58083;SDS011;43882;51.550;11.858;2023-04-07T13:08:10;18.02;;;7.43;;
58083;SDS011;43882;51.550;11.858;2023-04-07T13:10:37;18.23;;;7.75;;
58083;SDS011;43882;51.550;11.858;2023-04-07T13:13:03;19.02;;;7.95;;
58083;SDS011;43882;51.550;11.858;2023-04-07T13:15:29;19.20;;;7.63;;
58083;SDS011;43882;51.550;11.858;2023-04-07T13:17:56;18.38;;;7.25;;
58083;SDS011;43882;51.550;11.858;2023-04-07T13:20:21;19.35;;;7.68;;
58083;SDS011;43882;51.550;11.858;2023-04-07T13:22:50;17.42;;;7.30;;
58083;SDS011;43882;51.550;11.858;2023-04-07T13:25:16;18.50;;;7.38;;
58083;SDS011;43882;51.550;11.858;2023-04-07T13:27:42;18.65;;;7.30;;
58083;SDS011;43882;51.550;11.858;2023-04-07T13:30:08;18.17;;;7.13;;
58083;SDS011;43882;51.550;11.858;2023-04-07T13:32:34;17.88;;;7.38;;
58083;SDS011;43882;51.550;11.858;2023-04-07T13:35:00;17.30;;;6.63;;
58083;SDS011;43882;51.550;11.858;2023-04-07T13:37:26;17.23;;;6.90;;
58083;SDS011;43882;51.550;11.858;2023-04-07T13:39:52;18.40;;;7.03;;
58083;SDS011;43882;51.550;11.858;2023-04-07T13:42:18;19.58;;;7.32;;
58083;SDS011;43882;51.550;11.858;2023-04-07T13:44:44;17.80;;;6.97;;
58083;SDS011;43882;51.550;11.858;2023-04-07T13:47:12;17.35;;;6.90;;
58083;SDS011;43882;51.550;11.858;2023-04-07T13:49:43;17.65;;;6.65;;
58083;SDS011;43882;51.550;11.858;2023-04-07T13:52:09;18.15;;;6.60;;
58083;SDS011;43882;51.550;11.858;2023-04-07T13:54:35;18.13;;;7.13;;
58083;SDS011;43882;51.550;11.858;2023-04-07T13:57:02;18.23;;;6.97;;
58083;SDS011;43882;51.550;11.858;2023-04-07T13:59:28;19.50;;;6.97;;
58083;SDS011;43882;51.550;11.858;2023-04-07T14:01:54;17.65;;;6.70;;
58083;SDS011;43882;51.550;11.858;2023-04-07T14:04:20;17.48;;;6.53;;
58083;SDS011;43882;51.550;11.858;2023-04-07T14:06:46;18.33;;;6.82;;
58083;SDS011;43882;51.550;11.858;2023-04-07T14:09:12;18.83;;;6.65;;
58083;SDS011;43882;51.550;11.858;2023-04-07T14:11:38;18.33;;;6.32;;
58083;SDS011;43882;51.550;11.858;2023-04-07T14:14:05;17.15;;;6.40;;
58083;SDS011;43882;51.550;11.858;2023-04-07T14:16:31;18.98;;;7.22;;
58083;SDS011;43882;51.550;11.858;2023-04-07T14:18:57;17.55;;;6.85;;
58083;SDS011;43882;51.550;11.858;2023-04-07T14:21:23;16.65;;;6.68;;
58083;SDS011;43882;51.550;11.858;2023-04-07T14:23:51;18.73;;;7.55;;
58083;SDS011;43882;51.550;11.858;2023-04-07T14:26:17;18.40;;;7.35;;
58083;SDS011;43882;51.550;11.858;2023-04-07T14:28:43;18.45;;;8.10;;
58083;SDS011;43882;51.550;11.858;2023-04-07T14:31:12;19.42;;;8.00;;
58083;SDS011;43882;51.550;11.858;2023-04-07T14:33:39;18.88;;;8.25;;
58083;SDS011;43882;51.550;11.858;2023-04-07T14:36:05;18.98;;;7.82;;
58083;SDS011;43882;51.550;11.858;2023-04-07T14:38:31;20.77;;;7.38;;